sensor_id;sensor_type;location;lat;lon;timestamp;P1;durP1;ratioP1;P2;durP2;ratioP2
50429;SDS011;36359;41.556;-8.418;2022-07-29T00:00:42;1.75;;;0.77;;
50429;SDS011;36359;41.556;-8.418;2022-07-29T00:03:11;2.83;;;0.88;;
50429;SDS011;36359;41.556;-8.418;2022-07-29T00:05:40;1.85;;;0.85;;
50429;SDS011;36359;41.556;-8.418;2022-07-29T00:08:07;2.87;;;0.90;;
50429;SDS011;36359;41.556;-8.418;2022-07-29T00:10:34;2.70;;;0.88;;
50429;SDS011;36359;41.556;-8.418;2022-07-29T00:13:00;3.45;;;1.33;;
50429;SDS011;36359;41.556;-8.418;2022-07-29T00:15:26;1.52;;;0.80;;
50429;SDS011;36359;41.556;-8.418;2022-07-29T00:17:52;1.70;;;0.73;;
50429;SDS011;36359;41.556;-8.418;2022-07-29T00:20:18;1.90;;;0.80;;
50429;SDS011;36359;41.556;-8.418;2022-07-29T00:22:44;2.33;;;0.82;;
50429;SDS011;36359;41.556;-8.418;2022-07-29T00:25:11;1.52;;;0.70;;
50429;SDS011;36359;41.556;-8.418;2022-07-29T00:27:37;1.40;;;0.70;;
50429;SDS011;36359;41.556;-8.418;2022-07-29T00:30:04;2.65;;;0.95;;
50429;SDS011;36359;41.556;-8.418;2022-07-29T00:32:30;1.95;;;0.80;;
50429;SDS011;36359;41.556;-8.418;2022-07-29T00:34:56;2.85;;;1.20;;
50429;SDS011;36359;41.556;-8.418;2022-07-29T00:37:41;2.75;;;0.85;;
50429;SDS011;36359;41.556;-8.418;2022-07-29T00:40:07;2.38;;;1.20;;
50429;SDS011;36359;41.556;-8.418;2022-07-29T00:42:52;3.38;;;1.30;;
50429;SDS011;36359;41.556;-8.418;2022-07-29T00:45:18;2.33;;;0.90;;
50429;SDS011;36359;41.556;-8.418;2022-07-29T00:47:44;3.22;;;0.93;;
50429;SDS011;36359;41.556;-8.418;2022-07-29T00:50:11;2.33;;;1.52;;
50429;SDS011;36359;41.556;-8.418;2022-07-29T00:52:38;2.03;;;1.27;;
50429;SDS011;36359;41.556;-8.418;2022-07-29T00:55:06;2.00;;;1.08;;
50429;SDS011;36359;41.556;-8.418;2022-07-29T00:57:37;2.55;;;1.20;;
50429;SDS011;36359;41.556;-8.418;2022-07-29T01:00:04;1.35;;;0.98;;
50429;SDS011;36359;41.556;-8.418;2022-07-29T01:02:31;2.75;;;0.63;;
50429;SDS011;36359;41.556;-8.418;2022-07-29T01:04:57;2.75;;;1.10;;
50429;SDS011;36359;41.556;-8.418;2022-07-29T01:07:26;3.28;;;0.85;;
50429;SDS011;36359;41.556;-8.418;2022-07-29T01:09:54;3.33;;;1.92;;
50429;SDS011;36359;41.556;-8.418;2022-07-29T01:12:24;2.75;;;1.13;;
50429;SDS011;36359;41.556;-8.418;2022-07-29T01:14:52;2.10;;;0.93;;
50429;SDS011;36359;41.556;-8.418;2022-07-29T01:20:04;5.75;;;3.45;;
50429;SDS011;36359;41.556;-8.418;2022-07-29T01:30:24;4.22;;;1.50;;
50429;SDS011;36359;41.556;-8.418;2022-07-29T01:32:54;1.95;;;1.10;;
50429;SDS011;36359;41.556;-8.418;2022-07-29T01:35:38;2.08;;;1.42;;
50429;SDS011;36359;41.556;-8.418;2022-07-29T01:38:11;1.65;;;1.30;;
50429;SDS011;36359;41.556;-8.418;2022-07-29T01:40:58;4.43;;;2.40;;
50429;SDS011;36359;41.556;-8.418;2022-07-29T01:43:41;2.53;;;1.70;;
50429;SDS011;36359;41.556;-8.418;2022-07-29T01:46:11;3.20;;;1.50;;
50429;SDS011;36359;41.556;-8.418;2022-07-29T01:48:42;4.55;;;1.60;;
50429;SDS011;36359;41.556;-8.418;2022-07-29T01:53:38;2.50;;;1.85;;
50429;SDS011;36359;41.556;-8.418;2022-07-29T01:56:13;4.03;;;1.95;;
50429;SDS011;36359;41.556;-8.418;2022-07-29T01:58:42;3.20;;;1.83;;
50429;SDS011;36359;41.556;-8.418;2022-07-29T02:01:10;2.17;;;1.50;;
50429;SDS011;36359;41.556;-8.418;2022-07-29T02:03:38;2.38;;;1.40;;
50429;SDS011;36359;41.556;-8.418;2022-07-29T02:06:09;2.60;;;1.55;;
50429;SDS011;36359;41.556;-8.418;2022-07-29T02:08:58;1.67;;;1.30;;
50429;SDS011;36359;41.556;-8.418;2022-07-29T02:11:24;4.40;;;1.60;;
50429;SDS011;36359;41.556;-8.418;2022-07-29T02:13:50;4.65;;;2.20;;
50429;SDS011;36359;41.556;-8.418;2022-07-29T02:16:21;2.03;;;1.10;;
50429;SDS011;36359;41.556;-8.418;2022-07-29T02:18:49;3.70;;;1.50;;
50429;SDS011;36359;41.556;-8.418;2022-07-29T02:21:25;2.40;;;1.60;;
50429;SDS011;36359;41.556;-8.418;2022-07-29T02:23:53;1.95;;;1.30;;
50429;SDS011;36359;41.556;-8.418;2022-07-29T02:26:21;3.92;;;1.80;;
50429;SDS011;36359;41.556;-8.418;2022-07-29T02:28:50;1.80;;;1.20;;
50429;SDS011;36359;41.556;-8.418;2022-07-29T02:31:20;3.63;;;1.33;;
50429;SDS011;36359;41.556;-8.418;2022-07-29T02:33:51;3.10;;;1.42;;
50429;SDS011;36359;41.556;-8.418;2022-07-29T02:36:18;2.03;;;1.10;;
50429;SDS011;36359;41.556;-8.418;2022-07-29T02:38:48;4.57;;;2.20;;
50429;SDS011;36359;41.556;-8.418;2022-07-29T02:44:05;1.80;;;1.10;;
50429;SDS011;36359;41.556;-8.418;2022-07-29T02:46:35;3.40;;;1.60;;
50429;SDS011;36359;41.556;-8.418;2022-07-29T02:54:49;3.72;;;1.63;;
50429;SDS011;36359;41.556;-8.418;2022-07-29T02:57:24;2.08;;;1.50;;
50429;SDS011;36359;41.556;-8.418;2022-07-29T02:59:58;4.97;;;1.70;;
50429;SDS011;36359;41.556;-8.418;2022-07-29T03:02:29;1.40;;;1.10;;
50429;SDS011;36359;41.556;-8.418;2022-07-29T03:04:59;1.50;;;1.20;;
50429;SDS011;36359;41.556;-8.418;2022-07-29T03:07:26;2.63;;;1.35;;
50429;SDS011;36359;41.556;-8.418;2022-07-29T03:09:52;2.28;;;1.27;;
50429;SDS011;36359;41.556;-8.418;2022-07-29T03:12:19;1.38;;;1.00;;
50429;SDS011;36359;41.556;-8.418;2022-07-29T03:14:45;3.30;;;1.60;;
50429;SDS011;36359;41.556;-8.418;2022-07-29T03:17:12;3.90;;;1.60;;
50429;SDS011;36359;41.556;-8.418;2022-07-29T03:19:38;2.05;;;1.30;;
50429;SDS011;36359;41.556;-8.418;2022-07-29T03:22:05;3.33;;;1.85;;
50429;SDS011;36359;41.556;-8.418;2022-07-29T03:24:33;2.97;;;1.77;;
50429;SDS011;36359;41.556;-8.418;2022-07-29T03:27:00;2.60;;;1.63;;
50429;SDS011;36359;41.556;-8.418;2022-07-29T03:29:27;2.92;;;1.40;;
50429;SDS011;36359;41.556;-8.418;2022-07-29T03:31:53;4.18;;;1.40;;
50429;SDS011;36359;41.556;-8.418;2022-07-29T03:34:19;4.63;;;1.38;;
50429;SDS011;36359;41.556;-8.418;2022-07-29T03:36:45;2.80;;;1.58;;
50429;SDS011;36359;41.556;-8.418;2022-07-29T03:39:12;3.40;;;1.58;;
50429;SDS011;36359;41.556;-8.418;2022-07-29T03:41:43;1.95;;;1.30;;
50429;SDS011;36359;41.556;-8.418;2022-07-29T03:44:13;2.67;;;1.48;;
50429;SDS011;36359;41.556;-8.418;2022-07-29T03:46:41;2.97;;;1.55;;
50429;SDS011;36359;41.556;-8.418;2022-07-29T03:49:09;4.15;;;1.42;;
50429;SDS011;36359;41.556;-8.418;2022-07-29T03:51:36;4.47;;;1.40;;
50429;SDS011;36359;41.556;-8.418;2022-07-29T03:54:04;1.63;;;1.05;;
50429;SDS011;36359;41.556;-8.418;2022-07-29T03:56:31;3.13;;;1.20;;
50429;SDS011;36359;41.556;-8.418;2022-07-29T03:59:00;4.30;;;1.92;;
50429;SDS011;36359;41.556;-8.418;2022-07-29T04:01:28;7.15;;;2.15;;
50429;SDS011;36359;41.556;-8.418;2022-07-29T04:03:55;3.38;;;1.70;;
50429;SDS011;36359;41.556;-8.418;2022-07-29T04:06:21;2.25;;;1.42;;
50429;SDS011;36359;41.556;-8.418;2022-07-29T04:08:47;2.83;;;1.30;;
50429;SDS011;36359;41.556;-8.418;2022-07-29T04:11:12;3.63;;;1.67;;
50429;SDS011;36359;41.556;-8.418;2022-07-29T04:13:38;5.05;;;1.40;;
50429;SDS011;36359;41.556;-8.418;2022-07-29T04:16:04;2.25;;;1.30;;
50429;SDS011;36359;41.556;-8.418;2022-07-29T04:18:30;5.22;;;1.92;;
50429;SDS011;36359;41.556;-8.418;2022-07-29T04:20:55;4.38;;;1.88;;
50429;SDS011;36359;41.556;-8.418;2022-07-29T04:23:24;3.85;;;2.22;;
50429;SDS011;36359;41.556;-8.418;2022-07-29T04:25:50;3.65;;;1.80;;
50429;SDS011;36359;41.556;-8.418;2022-07-29T04:28:15;5.82;;;1.85;;
50429;SDS011;36359;41.556;-8.418;2022-07-29T04:30:41;2.25;;;1.58;;
50429;SDS011;36359;41.556;-8.418;2022-07-29T04:33:07;3.85;;;1.58;;
50429;SDS011;36359;41.556;-8.418;2022-07-29T04:35:34;1.98;;;1.40;;
50429;SDS011;36359;41.556;-8.418;2022-07-29T04:38:01;3.22;;;1.05;;
50429;SDS011;36359;41.556;-8.418;2022-07-29T04:40:28;4.10;;;1.50;;
50429;SDS011;36359;41.556;-8.418;2022-07-29T04:42:54;2.25;;;1.23;;
50429;SDS011;36359;41.556;-8.418;2022-07-29T04:45:19;3.25;;;1.60;;
50429;SDS011;36359;41.556;-8.418;2022-07-29T04:47:45;2.05;;;1.20;;
50429;SDS011;36359;41.556;-8.418;2022-07-29T04:50:11;2.22;;;1.15;;
50429;SDS011;36359;41.556;-8.418;2022-07-29T04:52:37;4.38;;;1.42;;
50429;SDS011;36359;41.556;-8.418;2022-07-29T04:55:03;2.92;;;1.67;;
50429;SDS011;36359;41.556;-8.418;2022-07-29T04:57:30;1.98;;;1.50;;
50429;SDS011;36359;41.556;-8.418;2022-07-29T04:59:56;3.22;;;1.23;;
50429;SDS011;36359;41.556;-8.418;2022-07-29T05:02:22;1.75;;;1.30;;
50429;SDS011;36359;41.556;-8.418;2022-07-29T05:04:48;1.85;;;1.10;;
50429;SDS011;36359;41.556;-8.418;2022-07-29T05:07:14;4.18;;;1.67;;
50429;SDS011;36359;41.556;-8.418;2022-07-29T05:09:40;2.22;;;1.40;;
50429;SDS011;36359;41.556;-8.418;2022-07-29T05:12:06;1.77;;;1.35;;
50429;SDS011;36359;41.556;-8.418;2022-07-29T05:14:32;2.22;;;1.33;;
50429;SDS011;36359;41.556;-8.418;2022-07-29T05:16:58;3.72;;;1.70;;
50429;SDS011;36359;41.556;-8.418;2022-07-29T05:19:24;3.22;;;1.52;;
50429;SDS011;36359;41.556;-8.418;2022-07-29T05:21:50;2.35;;;1.50;;
50429;SDS011;36359;41.556;-8.418;2022-07-29T05:24:16;4.95;;;2.00;;
50429;SDS011;36359;41.556;-8.418;2022-07-29T05:26:41;4.72;;;2.20;;
50429;SDS011;36359;41.556;-8.418;2022-07-29T05:29:08;3.20;;;1.58;;
50429;SDS011;36359;41.556;-8.418;2022-07-29T05:31:34;4.60;;;2.03;;
50429;SDS011;36359;41.556;-8.418;2022-07-29T05:34:00;2.75;;;1.67;;
50429;SDS011;36359;41.556;-8.418;2022-07-29T05:36:25;2.65;;;1.95;;
50429;SDS011;36359;41.556;-8.418;2022-07-29T05:38:51;2.25;;;1.30;;
50429;SDS011;36359;41.556;-8.418;2022-07-29T05:41:18;1.60;;;1.17;;
50429;SDS011;36359;41.556;-8.418;2022-07-29T05:43:44;2.97;;;1.55;;
50429;SDS011;36359;41.556;-8.418;2022-07-29T05:46:10;2.97;;;1.90;;
50429;SDS011;36359;41.556;-8.418;2022-07-29T05:48:36;3.92;;;1.63;;
50429;SDS011;36359;41.556;-8.418;2022-07-29T05:51:01;1.52;;;1.30;;
50429;SDS011;36359;41.556;-8.418;2022-07-29T05:53:27;1.73;;;1.20;;
50429;SDS011;36359;41.556;-8.418;2022-07-29T05:55:53;2.85;;;1.83;;
50429;SDS011;36359;41.556;-8.418;2022-07-29T05:58:19;4.95;;;2.58;;
50429;SDS011;36359;41.556;-8.418;2022-07-29T06:00:45;3.70;;;2.20;;
50429;SDS011;36359;41.556;-8.418;2022-07-29T06:03:11;4.85;;;3.50;;
50429;SDS011;36359;41.556;-8.418;2022-07-29T06:05:37;17.05;;;12.63;;
50429;SDS011;36359;41.556;-8.418;2022-07-29T06:08:03;18.35;;;16.55;;
50429;SDS011;36359;41.556;-8.418;2022-07-29T06:10:32;11.90;;;9.65;;
50429;SDS011;36359;41.556;-8.418;2022-07-29T06:12:59;6.65;;;5.05;;
50429;SDS011;36359;41.556;-8.418;2022-07-29T06:15:25;4.97;;;3.85;;
50429;SDS011;36359;41.556;-8.418;2022-07-29T06:17:51;4.35;;;2.00;;
50429;SDS011;36359;41.556;-8.418;2022-07-29T06:20:17;3.28;;;2.30;;
50429;SDS011;36359;41.556;-8.418;2022-07-29T06:22:44;3.05;;;1.70;;
50429;SDS011;36359;41.556;-8.418;2022-07-29T06:25:10;3.90;;;1.90;;
50429;SDS011;36359;41.556;-8.418;2022-07-29T06:27:36;4.00;;;2.38;;
50429;SDS011;36359;41.556;-8.418;2022-07-29T06:30:03;4.53;;;1.80;;
50429;SDS011;36359;41.556;-8.418;2022-07-29T06:32:32;4.80;;;2.35;;
50429;SDS011;36359;41.556;-8.418;2022-07-29T06:34:58;3.63;;;2.67;;
50429;SDS011;36359;41.556;-8.418;2022-07-29T06:37:24;2.40;;;1.85;;
50429;SDS011;36359;41.556;-8.418;2022-07-29T06:39:50;4.85;;;2.60;;
50429;SDS011;36359;41.556;-8.418;2022-07-29T06:42:35;5.47;;;2.38;;
50429;SDS011;36359;41.556;-8.418;2022-07-29T06:45:01;5.13;;;2.28;;
50429;SDS011;36359;41.556;-8.418;2022-07-29T06:47:27;5.30;;;2.30;;
50429;SDS011;36359;41.556;-8.418;2022-07-29T06:49:53;3.55;;;1.95;;
50429;SDS011;36359;41.556;-8.418;2022-07-29T06:52:19;4.80;;;2.80;;
50429;SDS011;36359;41.556;-8.418;2022-07-29T06:54:44;4.13;;;2.88;;
50429;SDS011;36359;41.556;-8.418;2022-07-29T06:57:13;6.63;;;4.43;;
50429;SDS011;36359;41.556;-8.418;2022-07-29T06:59:39;13.45;;;4.82;;
50429;SDS011;36359;41.556;-8.418;2022-07-29T07:02:05;6.45;;;3.92;;
50429;SDS011;36359;41.556;-8.418;2022-07-29T07:04:31;3.75;;;2.20;;
50429;SDS011;36359;41.556;-8.418;2022-07-29T07:06:57;4.32;;;2.22;;
50429;SDS011;36359;41.556;-8.418;2022-07-29T07:09:24;2.38;;;1.63;;
50429;SDS011;36359;41.556;-8.418;2022-07-29T07:11:50;5.90;;;2.30;;
50429;SDS011;36359;41.556;-8.418;2022-07-29T07:14:16;3.97;;;2.15;;
50429;SDS011;36359;41.556;-8.418;2022-07-29T07:16:41;4.75;;;2.10;;
50429;SDS011;36359;41.556;-8.418;2022-07-29T07:19:07;2.00;;;1.80;;
50429;SDS011;36359;41.556;-8.418;2022-07-29T07:21:33;3.35;;;2.10;;
50429;SDS011;36359;41.556;-8.418;2022-07-29T07:23:59;4.70;;;2.50;;
50429;SDS011;36359;41.556;-8.418;2022-07-29T07:26:26;4.82;;;2.42;;
50429;SDS011;36359;41.556;-8.418;2022-07-29T07:28:52;7.70;;;2.35;;
50429;SDS011;36359;41.556;-8.418;2022-07-29T07:31:18;7.55;;;2.78;;
50429;SDS011;36359;41.556;-8.418;2022-07-29T07:33:45;4.95;;;2.95;;
50429;SDS011;36359;41.556;-8.418;2022-07-29T07:36:10;5.75;;;2.58;;
50429;SDS011;36359;41.556;-8.418;2022-07-29T07:38:36;18.23;;;3.67;;
50429;SDS011;36359;41.556;-8.418;2022-07-29T07:41:02;5.63;;;2.88;;
50429;SDS011;36359;41.556;-8.418;2022-07-29T07:43:28;6.88;;;3.30;;
50429;SDS011;36359;41.556;-8.418;2022-07-29T07:45:54;10.68;;;2.78;;
50429;SDS011;36359;41.556;-8.418;2022-07-29T07:48:20;7.97;;;2.90;;
50429;SDS011;36359;41.556;-8.418;2022-07-29T07:50:45;11.23;;;4.03;;
50429;SDS011;36359;41.556;-8.418;2022-07-29T07:53:11;10.38;;;3.72;;
50429;SDS011;36359;41.556;-8.418;2022-07-29T07:55:41;4.43;;;2.35;;
50429;SDS011;36359;41.556;-8.418;2022-07-29T07:58:08;10.02;;;4.60;;
50429;SDS011;36359;41.556;-8.418;2022-07-29T08:00:34;3.67;;;2.30;;
50429;SDS011;36359;41.556;-8.418;2022-07-29T08:03:00;5.43;;;2.42;;
50429;SDS011;36359;41.556;-8.418;2022-07-29T08:05:26;8.10;;;2.88;;
50429;SDS011;36359;41.556;-8.418;2022-07-29T08:07:52;4.78;;;2.20;;
50429;SDS011;36359;41.556;-8.418;2022-07-29T08:10:18;7.07;;;3.28;;
50429;SDS011;36359;41.556;-8.418;2022-07-29T08:13:10;6.10;;;2.60;;
50429;SDS011;36359;41.556;-8.418;2022-07-29T08:15:38;6.95;;;2.40;;
50429;SDS011;36359;41.556;-8.418;2022-07-29T08:18:06;5.70;;;2.67;;
50429;SDS011;36359;41.556;-8.418;2022-07-29T08:20:31;4.93;;;2.67;;
50429;SDS011;36359;41.556;-8.418;2022-07-29T08:23:01;5.72;;;2.47;;
50429;SDS011;36359;41.556;-8.418;2022-07-29T08:25:28;7.03;;;3.13;;
50429;SDS011;36359;41.556;-8.418;2022-07-29T08:27:54;5.78;;;2.60;;
50429;SDS011;36359;41.556;-8.418;2022-07-29T08:30:20;3.92;;;2.20;;
50429;SDS011;36359;41.556;-8.418;2022-07-29T08:32:47;9.15;;;2.35;;
50429;SDS011;36359;41.556;-8.418;2022-07-29T08:35:13;4.50;;;2.30;;
50429;SDS011;36359;41.556;-8.418;2022-07-29T08:37:39;5.88;;;2.63;;
50429;SDS011;36359;41.556;-8.418;2022-07-29T08:40:05;4.32;;;2.05;;
50429;SDS011;36359;41.556;-8.418;2022-07-29T08:42:31;7.70;;;2.83;;
50429;SDS011;36359;41.556;-8.418;2022-07-29T08:44:57;5.38;;;2.25;;
50429;SDS011;36359;41.556;-8.418;2022-07-29T08:47:24;5.80;;;2.10;;
50429;SDS011;36359;41.556;-8.418;2022-07-29T08:49:51;2.33;;;1.60;;
50429;SDS011;36359;41.556;-8.418;2022-07-29T08:52:17;4.35;;;1.80;;
50429;SDS011;36359;41.556;-8.418;2022-07-29T08:54:44;5.32;;;1.92;;
50429;SDS011;36359;41.556;-8.418;2022-07-29T08:57:13;5.10;;;2.35;;
50429;SDS011;36359;41.556;-8.418;2022-07-29T08:59:41;7.20;;;2.33;;
50429;SDS011;36359;41.556;-8.418;2022-07-29T09:02:10;3.03;;;2.00;;
50429;SDS011;36359;41.556;-8.418;2022-07-29T09:04:44;5.18;;;2.20;;
50429;SDS011;36359;41.556;-8.418;2022-07-29T09:07:11;4.78;;;2.28;;
50429;SDS011;36359;41.556;-8.418;2022-07-29T09:09:40;5.10;;;1.85;;
50429;SDS011;36359;41.556;-8.418;2022-07-29T09:12:06;2.70;;;1.92;;
50429;SDS011;36359;41.556;-8.418;2022-07-29T09:14:33;2.70;;;1.80;;
50429;SDS011;36359;41.556;-8.418;2022-07-29T09:16:59;4.35;;;1.95;;
50429;SDS011;36359;41.556;-8.418;2022-07-29T09:19:32;3.42;;;1.65;;
50429;SDS011;36359;41.556;-8.418;2022-07-29T09:22:03;6.18;;;2.40;;
50429;SDS011;36359;41.556;-8.418;2022-07-29T09:27:00;10.00;;;2.90;;
50429;SDS011;36359;41.556;-8.418;2022-07-29T09:29:27;4.90;;;2.10;;
50429;SDS011;36359;41.556;-8.418;2022-07-29T09:31:54;7.38;;;2.20;;
50429;SDS011;36359;41.556;-8.418;2022-07-29T09:34:24;3.42;;;1.90;;
50429;SDS011;36359;41.556;-8.418;2022-07-29T09:36:51;5.07;;;1.85;;
50429;SDS011;36359;41.556;-8.418;2022-07-29T09:42:10;5.90;;;2.20;;
50429;SDS011;36359;41.556;-8.418;2022-07-29T09:47:07;5.13;;;1.80;;
50429;SDS011;36359;41.556;-8.418;2022-07-29T09:49:33;5.68;;;2.28;;
50429;SDS011;36359;41.556;-8.418;2022-07-29T09:54:31;4.00;;;2.10;;
50429;SDS011;36359;41.556;-8.418;2022-07-29T09:57:05;3.03;;;1.70;;
50429;SDS011;36359;41.556;-8.418;2022-07-29T09:59:34;7.05;;;1.80;;
50429;SDS011;36359;41.556;-8.418;2022-07-29T10:02:01;2.78;;;1.83;;
50429;SDS011;36359;41.556;-8.418;2022-07-29T10:04:37;6.13;;;1.85;;
50429;SDS011;36359;41.556;-8.418;2022-07-29T10:07:04;6.70;;;2.10;;
50429;SDS011;36359;41.556;-8.418;2022-07-29T10:09:32;3.85;;;1.88;;
50429;SDS011;36359;41.556;-8.418;2022-07-29T10:12:02;4.00;;;1.85;;
50429;SDS011;36359;41.556;-8.418;2022-07-29T10:14:36;2.78;;;1.83;;
50429;SDS011;36359;41.556;-8.418;2022-07-29T10:17:05;6.72;;;2.20;;
50429;SDS011;36359;41.556;-8.418;2022-07-29T10:19:32;3.92;;;2.00;;
50429;SDS011;36359;41.556;-8.418;2022-07-29T10:21:59;4.50;;;1.60;;
50429;SDS011;36359;41.556;-8.418;2022-07-29T10:24:26;2.38;;;1.55;;
50429;SDS011;36359;41.556;-8.418;2022-07-29T10:26:56;7.43;;;2.30;;
50429;SDS011;36359;41.556;-8.418;2022-07-29T10:29:23;8.32;;;1.92;;
50429;SDS011;36359;41.556;-8.418;2022-07-29T10:43:35;5.55;;;1.58;;
50429;SDS011;36359;41.556;-8.418;2022-07-29T10:46:06;3.30;;;1.75;;
50429;SDS011;36359;41.556;-8.418;2022-07-29T10:48:32;2.50;;;1.60;;
50429;SDS011;36359;41.556;-8.418;2022-07-29T10:50:59;4.93;;;1.92;;
50429;SDS011;36359;41.556;-8.418;2022-07-29T10:56:26;4.43;;;1.77;;
50429;SDS011;36359;41.556;-8.418;2022-07-29T11:01:43;3.50;;;1.73;;
50429;SDS011;36359;41.556;-8.418;2022-07-29T11:04:09;6.00;;;1.83;;
50429;SDS011;36359;41.556;-8.418;2022-07-29T11:09:33;5.32;;;2.20;;
50429;SDS011;36359;41.556;-8.418;2022-07-29T11:11:59;3.42;;;1.85;;
50429;SDS011;36359;41.556;-8.418;2022-07-29T11:17:21;4.28;;;1.92;;
50429;SDS011;36359;41.556;-8.418;2022-07-29T11:19:47;2.60;;;1.25;;
50429;SDS011;36359;41.556;-8.418;2022-07-29T11:22:30;2.95;;;1.42;;
50429;SDS011;36359;41.556;-8.418;2022-07-29T11:25:17;3.75;;;1.20;;
50429;SDS011;36359;41.556;-8.418;2022-07-29T11:27:44;2.88;;;1.60;;
50429;SDS011;36359;41.556;-8.418;2022-07-29T11:30:10;2.55;;;1.40;;
50429;SDS011;36359;41.556;-8.418;2022-07-29T11:32:38;2.70;;;1.52;;
50429;SDS011;36359;41.556;-8.418;2022-07-29T11:35:22;3.25;;;1.50;;
50429;SDS011;36359;41.556;-8.418;2022-07-29T11:40:33;2.30;;;1.27;;
50429;SDS011;36359;41.556;-8.418;2022-07-29T11:42:59;2.13;;;1.30;;
50429;SDS011;36359;41.556;-8.418;2022-07-29T11:47:58;4.18;;;1.70;;
50429;SDS011;36359;41.556;-8.418;2022-07-29T11:53:02;2.30;;;1.23;;
50429;SDS011;36359;41.556;-8.418;2022-07-29T11:55:38;2.00;;;1.30;;
50429;SDS011;36359;41.556;-8.418;2022-07-29T11:58:05;2.30;;;1.30;;
50429;SDS011;36359;41.556;-8.418;2022-07-29T12:00:33;3.33;;;1.10;;
50429;SDS011;36359;41.556;-8.418;2022-07-29T12:03:02;2.45;;;1.33;;
50429;SDS011;36359;41.556;-8.418;2022-07-29T12:05:31;1.10;;;1.00;;
50429;SDS011;36359;41.556;-8.418;2022-07-29T12:08:08;1.85;;;1.30;;
50429;SDS011;36359;41.556;-8.418;2022-07-29T12:10:36;2.15;;;1.20;;
50429;SDS011;36359;41.556;-8.418;2022-07-29T12:13:02;2.38;;;0.90;;
50429;SDS011;36359;41.556;-8.418;2022-07-29T12:15:28;3.17;;;1.30;;
50429;SDS011;36359;41.556;-8.418;2022-07-29T12:17:54;1.90;;;1.05;;
50429;SDS011;36359;41.556;-8.418;2022-07-29T12:20:25;3.08;;;1.30;;
50429;SDS011;36359;41.556;-8.418;2022-07-29T12:22:52;2.05;;;0.90;;
50429;SDS011;36359;41.556;-8.418;2022-07-29T12:25:20;1.90;;;1.05;;
50429;SDS011;36359;41.556;-8.418;2022-07-29T12:27:47;1.45;;;1.15;;
50429;SDS011;36359;41.556;-8.418;2022-07-29T12:30:22;2.63;;;1.00;;
50429;SDS011;36359;41.556;-8.418;2022-07-29T12:32:48;3.50;;;1.38;;
50429;SDS011;36359;41.556;-8.418;2022-07-29T12:35:15;3.60;;;1.13;;
50429;SDS011;36359;41.556;-8.418;2022-07-29T12:40:13;2.28;;;1.00;;
50429;SDS011;36359;41.556;-8.418;2022-07-29T12:48:32;1.92;;;0.98;;
50429;SDS011;36359;41.556;-8.418;2022-07-29T12:51:03;2.35;;;0.95;;
50429;SDS011;36359;41.556;-8.418;2022-07-29T12:53:31;3.10;;;1.23;;
50429;SDS011;36359;41.556;-8.418;2022-07-29T12:55:57;2.35;;;0.90;;
50429;SDS011;36359;41.556;-8.418;2022-07-29T12:58:27;3.15;;;1.05;;
50429;SDS011;36359;41.556;-8.418;2022-07-29T13:03:43;4.38;;;1.20;;
50429;SDS011;36359;41.556;-8.418;2022-07-29T13:11:43;1.30;;;0.95;;
50429;SDS011;36359;41.556;-8.418;2022-07-29T13:14:14;2.43;;;0.90;;
50429;SDS011;36359;41.556;-8.418;2022-07-29T13:17:07;3.10;;;1.10;;
50429;SDS011;36359;41.556;-8.418;2022-07-29T13:22:06;1.27;;;0.82;;
50429;SDS011;36359;41.556;-8.418;2022-07-29T13:24:51;1.73;;;0.90;;
50429;SDS011;36359;41.556;-8.418;2022-07-29T13:27:24;5.85;;;1.30;;
50429;SDS011;36359;41.556;-8.418;2022-07-29T13:29:51;8.15;;;1.60;;
50429;SDS011;36359;41.556;-8.418;2022-07-29T13:32:22;6.53;;;1.52;;
50429;SDS011;36359;41.556;-8.418;2022-07-29T13:34:48;3.28;;;1.20;;
50429;SDS011;36359;41.556;-8.418;2022-07-29T13:37:14;1.50;;;1.17;;
50429;SDS011;36359;41.556;-8.418;2022-07-29T13:39:40;4.72;;;1.20;;
50429;SDS011;36359;41.556;-8.418;2022-07-29T13:42:06;2.25;;;1.23;;
50429;SDS011;36359;41.556;-8.418;2022-07-29T13:44:33;2.17;;;1.38;;
50429;SDS011;36359;41.556;-8.418;2022-07-29T13:46:59;2.33;;;1.20;;
50429;SDS011;36359;41.556;-8.418;2022-07-29T13:49:26;2.92;;;1.42;;
50429;SDS011;36359;41.556;-8.418;2022-07-29T13:51:52;3.53;;;1.60;;
50429;SDS011;36359;41.556;-8.418;2022-07-29T13:54:19;2.65;;;1.23;;
50429;SDS011;36359;41.556;-8.418;2022-07-29T13:56:45;4.90;;;1.38;;
50429;SDS011;36359;41.556;-8.418;2022-07-29T13:59:11;4.68;;;1.67;;
50429;SDS011;36359;41.556;-8.418;2022-07-29T14:01:37;4.13;;;1.45;;
50429;SDS011;36359;41.556;-8.418;2022-07-29T14:04:06;2.88;;;1.17;;
50429;SDS011;36359;41.556;-8.418;2022-07-29T14:06:32;3.25;;;1.60;;
50429;SDS011;36359;41.556;-8.418;2022-07-29T14:08:58;4.85;;;1.90;;
50429;SDS011;36359;41.556;-8.418;2022-07-29T14:11:24;2.67;;;1.27;;
50429;SDS011;36359;41.556;-8.418;2022-07-29T14:13:50;2.10;;;1.50;;
50429;SDS011;36359;41.556;-8.418;2022-07-29T14:16:15;2.25;;;1.10;;
50429;SDS011;36359;41.556;-8.418;2022-07-29T14:18:41;2.15;;;1.30;;
50429;SDS011;36359;41.556;-8.418;2022-07-29T14:21:07;2.08;;;1.60;;
50429;SDS011;36359;41.556;-8.418;2022-07-29T14:23:33;2.75;;;1.40;;
50429;SDS011;36359;41.556;-8.418;2022-07-29T14:25:59;6.13;;;3.25;;
50429;SDS011;36359;41.556;-8.418;2022-07-29T14:28:25;2.85;;;1.80;;
50429;SDS011;36359;41.556;-8.418;2022-07-29T14:30:51;4.55;;;2.17;;
50429;SDS011;36359;41.556;-8.418;2022-07-29T14:33:16;1.45;;;1.08;;
50429;SDS011;36359;41.556;-8.418;2022-07-29T14:35:42;4.05;;;1.80;;
50429;SDS011;36359;41.556;-8.418;2022-07-29T14:38:09;2.33;;;1.48;;
50429;SDS011;36359;41.556;-8.418;2022-07-29T14:40:35;2.72;;;1.58;;
50429;SDS011;36359;41.556;-8.418;2022-07-29T14:43:01;2.90;;;1.95;;
50429;SDS011;36359;41.556;-8.418;2022-07-29T14:45:27;2.40;;;1.52;;
50429;SDS011;36359;41.556;-8.418;2022-07-29T14:47:53;2.55;;;1.40;;
50429;SDS011;36359;41.556;-8.418;2022-07-29T14:50:19;1.60;;;1.30;;
50429;SDS011;36359;41.556;-8.418;2022-07-29T14:52:46;2.50;;;1.35;;
50429;SDS011;36359;41.556;-8.418;2022-07-29T14:55:11;3.28;;;1.58;;
50429;SDS011;36359;41.556;-8.418;2022-07-29T14:57:37;3.05;;;1.58;;
50429;SDS011;36359;41.556;-8.418;2022-07-29T15:00:04;3.03;;;1.90;;
50429;SDS011;36359;41.556;-8.418;2022-07-29T15:02:32;3.00;;;1.75;;
50429;SDS011;36359;41.556;-8.418;2022-07-29T15:04:58;2.22;;;1.50;;
50429;SDS011;36359;41.556;-8.418;2022-07-29T15:07:24;4.93;;;1.58;;
50429;SDS011;36359;41.556;-8.418;2022-07-29T15:09:50;6.55;;;1.80;;
50429;SDS011;36359;41.556;-8.418;2022-07-29T15:12:16;4.18;;;1.70;;
50429;SDS011;36359;41.556;-8.418;2022-07-29T15:14:42;3.85;;;2.00;;
50429;SDS011;36359;41.556;-8.418;2022-07-29T15:17:07;2.65;;;1.77;;
50429;SDS011;36359;41.556;-8.418;2022-07-29T15:19:33;4.53;;;1.80;;
50429;SDS011;36359;41.556;-8.418;2022-07-29T15:21:59;1.90;;;1.60;;
50429;SDS011;36359;41.556;-8.418;2022-07-29T15:24:25;3.75;;;1.70;;
50429;SDS011;36359;41.556;-8.418;2022-07-29T15:26:51;2.25;;;1.83;;
50429;SDS011;36359;41.556;-8.418;2022-07-29T15:29:17;3.42;;;1.50;;
50429;SDS011;36359;41.556;-8.418;2022-07-29T15:31:42;3.60;;;1.85;;
50429;SDS011;36359;41.556;-8.418;2022-07-29T15:34:08;3.88;;;1.58;;
50429;SDS011;36359;41.556;-8.418;2022-07-29T15:36:34;4.18;;;1.67;;
50429;SDS011;36359;41.556;-8.418;2022-07-29T15:39:00;2.53;;;1.50;;
50429;SDS011;36359;41.556;-8.418;2022-07-29T15:41:26;3.08;;;1.60;;
50429;SDS011;36359;41.556;-8.418;2022-07-29T15:43:52;5.97;;;1.80;;
50429;SDS011;36359;41.556;-8.418;2022-07-29T15:46:18;4.28;;;1.90;;
50429;SDS011;36359;41.556;-8.418;2022-07-29T15:49:03;2.22;;;1.63;;
50429;SDS011;36359;41.556;-8.418;2022-07-29T15:51:31;3.20;;;1.90;;
50429;SDS011;36359;41.556;-8.418;2022-07-29T15:53:57;3.55;;;2.10;;
50429;SDS011;36359;41.556;-8.418;2022-07-29T15:56:23;3.78;;;1.75;;
50429;SDS011;36359;41.556;-8.418;2022-07-29T15:58:49;4.20;;;1.70;;